createdAt,value
2023-10-14T00:00:58.918Z,14.33
2023-10-14T00:03:28.859Z,14.31
2023-10-14T00:05:56.374Z,14.29
2023-10-14T00:08:27.611Z,14.30
2023-10-14T00:10:54.114Z,14.28
2023-10-14T00:13:20.629Z,14.27
2023-10-14T00:15:47.093Z,14.22
2023-10-14T00:18:14.214Z,14.17
2023-10-14T00:20:41.143Z,14.08
2023-10-14T00:23:07.548Z,14.05
2023-10-14T00:25:36.013Z,13.99
2023-10-14T00:28:08.912Z,13.94
2023-10-14T00:30:35.392Z,13.90
2023-10-14T00:33:02.046Z,13.88
2023-10-14T00:35:28.987Z,13.85
2023-10-14T00:37:56.772Z,13.83
2023-10-14T00:40:23.953Z,13.82
2023-10-14T00:42:52.268Z,13.77
2023-10-14T00:45:21.994Z,13.74
2023-10-14T00:47:50.197Z,13.71
2023-10-14T00:50:35.862Z,13.68
2023-10-14T00:53:06.877Z,13.66
2023-10-14T00:55:45.408Z,13.65
2023-10-14T00:58:13.967Z,13.64
2023-10-14T01:00:58.247Z,13.63
2023-10-14T01:03:33.043Z,13.62
2023-10-14T01:06:08.107Z,13.61
2023-10-14T01:08:39.230Z,13.56
2023-10-14T01:11:05.665Z,13.51
2023-10-14T01:13:32.097Z,13.42
2023-10-14T01:16:04.515Z,13.40
2023-10-14T01:18:35.890Z,13.39
2023-10-14T01:21:02.602Z,13.37
2023-10-14T01:23:28.975Z,13.36
2023-10-14T01:25:55.435Z,13.34
2023-10-14T01:28:23.005Z,13.34
2023-10-14T01:31:24.110Z,13.35
2023-10-14T01:33:50.640Z,13.32
2023-10-14T01:36:17.208Z,13.33
2023-10-14T01:38:52.130Z,13.31
2023-10-14T01:41:18.727Z,13.29
2023-10-14T01:43:45.204Z,13.26
2023-10-14T01:46:11.723Z,13.22
2023-10-14T01:48:39.671Z,13.18
2023-10-14T01:51:06.218Z,13.13
2023-10-14T01:53:33.660Z,13.06
2023-10-14T01:56:02.388Z,12.96
2023-10-14T01:58:37.436Z,12.92
2023-10-14T02:01:08.876Z,12.86
2023-10-14T02:03:43.316Z,12.80
2023-10-14T02:06:21.123Z,12.74
2023-10-14T02:08:52.106Z,12.68
2023-10-14T02:11:22.125Z,12.65
2023-10-14T02:13:52.638Z,12.62
2023-10-14T02:16:25.878Z,12.59
2023-10-14T02:19:24.907Z,12.57
2023-10-14T02:21:59.002Z,12.56
2023-10-14T02:24:28.752Z,12.50
2023-10-14T02:26:58.152Z,12.43
2023-10-14T02:29:25.598Z,12.39
2023-10-14T02:31:52.306Z,12.36
2023-10-14T02:34:20.017Z,12.30
2023-10-14T02:36:52.290Z,12.21
2023-10-14T02:39:26.821Z,12.18
2023-10-14T02:42:05.522Z,12.10
2023-10-14T02:44:34.150Z,12.03
2023-10-14T02:47:10.172Z,11.97
2023-10-14T02:49:47.391Z,11.89
2023-10-14T02:52:19.150Z,11.83
2023-10-14T02:54:55.780Z,11.78
2023-10-14T02:57:29.161Z,11.72
2023-10-14T02:59:59.677Z,11.68
2023-10-14T03:02:28.274Z,11.60
2023-10-14T03:05:00.428Z,11.53
2023-10-14T03:07:31.619Z,11.49
2023-10-14T03:10:13.537Z,11.45
2023-10-14T03:12:40.952Z,11.38
2023-10-14T03:15:21.210Z,11.36
2023-10-14T03:17:54.552Z,11.34
2023-10-14T03:20:30.592Z,11.30
2023-10-14T03:23:01.046Z,11.26
2023-10-14T03:25:28.802Z,11.22
2023-10-14T03:28:13.300Z,11.17
2023-10-14T03:30:45.365Z,11.10
2023-10-14T03:33:14.535Z,11.08
2023-10-14T03:35:43.192Z,11.05
2023-10-14T03:38:26.095Z,11.05
2023-10-14T03:41:04.983Z,11.03
2023-10-14T03:43:50.466Z,11.00
2023-10-14T03:46:24.182Z,10.96
2023-10-14T03:48:56.847Z,10.97
2023-10-14T03:51:31.469Z,11.01
2023-10-14T03:53:59.566Z,11.00
2023-10-14T03:56:28.536Z,10.99
2023-10-14T03:58:56.541Z,10.96
2023-10-14T04:01:39.725Z,10.91
2023-10-14T04:04:26.809Z,10.85
2023-10-14T04:07:01.318Z,10.81
2023-10-14T04:09:44.742Z,10.78
2023-10-14T04:12:13.585Z,10.77
2023-10-14T04:14:41.965Z,10.76
2023-10-14T04:17:11.271Z,10.75
2023-10-14T04:19:54.348Z,10.72
2023-10-14T04:22:35.970Z,10.69
2023-10-14T04:25:34.740Z,10.67
2023-10-14T04:28:16.232Z,10.61
2023-10-14T04:30:46.281Z,10.58
2023-10-14T04:33:15.812Z,10.55
2023-10-14T04:35:58.170Z,10.52
2023-10-14T04:38:39.264Z,10.50
2023-10-14T04:41:14.276Z,10.49
2023-10-14T04:43:48.214Z,10.47
2023-10-14T04:46:17.386Z,10.43
2023-10-14T04:48:52.535Z,10.37
2023-10-14T04:51:20.507Z,10.35
2023-10-14T04:53:51.093Z,10.31
2023-10-14T04:56:23.771Z,10.29
2023-10-14T04:58:54.201Z,10.26
2023-10-14T05:01:21.162Z,10.24
2023-10-14T05:03:47.880Z,10.22
2023-10-14T05:06:14.489Z,10.22
2023-10-14T05:08:47.060Z,10.23
2023-10-14T05:11:15.040Z,10.23
2023-10-14T05:13:45.624Z,10.22
2023-10-14T05:16:22.686Z,10.19
2023-10-14T05:19:06.270Z,10.18
2023-10-14T05:21:45.134Z,10.17
2023-10-14T05:24:13.021Z,10.15
2023-10-14T05:26:59.982Z,10.13
2023-10-14T05:29:27.337Z,10.11
2023-10-14T05:31:54.369Z,10.09
2023-10-14T05:34:27.812Z,10.06
2023-10-14T05:36:56.995Z,10.04
2023-10-14T05:39:23.899Z,9.98
2023-10-14T05:41:57.103Z,9.98
2023-10-14T05:44:23.521Z,9.98
2023-10-14T05:46:50.049Z,9.97
2023-10-14T05:49:17.455Z,9.93
2023-10-14T05:51:43.956Z,9.93
2023-10-14T05:54:12.253Z,9.92
2023-10-14T05:56:40.532Z,9.88
2023-10-14T05:59:07.346Z,9.86
2023-10-14T06:01:33.867Z,9.83
2023-10-14T06:04:00.432Z,9.80
2023-10-14T06:06:26.940Z,9.77
2023-10-14T06:08:54.322Z,9.75
2023-10-14T06:11:20.697Z,9.76
2023-10-14T06:13:47.132Z,9.76
2023-10-14T06:16:15.172Z,9.72
2023-10-14T06:18:42.296Z,9.70
2023-10-14T06:21:12.142Z,9.69
2023-10-14T06:23:41.063Z,9.67
2023-10-14T06:26:07.532Z,9.66
2023-10-14T06:28:34.050Z,9.67
2023-10-14T06:31:01.554Z,9.66
2023-10-14T06:33:28.521Z,9.65
2023-10-14T06:35:54.951Z,9.66
2023-10-14T06:38:23.648Z,9.66
2023-10-14T06:40:56.733Z,9.63
2023-10-14T06:43:25.660Z,9.63
2023-10-14T06:45:54.320Z,9.62
2023-10-14T06:48:21.099Z,9.64
2023-10-14T06:50:48.438Z,9.66
2023-10-14T06:53:16.787Z,9.67
2023-10-14T06:55:43.624Z,9.67
2023-10-14T06:58:19.999Z,9.66
2023-10-14T07:00:46.845Z,9.67
2023-10-14T07:03:16.485Z,9.69
2023-10-14T07:05:47.900Z,9.69
2023-10-14T07:08:15.347Z,9.74
2023-10-14T07:10:42.063Z,9.76
2023-10-14T07:13:09.243Z,9.79
2023-10-14T07:15:39.763Z,9.83
2023-10-14T07:18:06.935Z,9.85
2023-10-14T07:20:33.486Z,9.89
2023-10-14T07:23:02.244Z,9.92
2023-10-14T07:25:33.525Z,9.96
2023-10-14T07:28:02.144Z,9.99
2023-10-14T07:30:29.188Z,10.04
2023-10-14T07:32:57.064Z,10.07
2023-10-14T07:35:23.989Z,10.09
2023-10-14T07:37:52.062Z,10.13
2023-10-14T07:40:28.318Z,10.17
2023-10-14T07:42:57.524Z,10.23
2023-10-14T07:45:34.522Z,10.26
2023-10-14T07:48:09.849Z,10.31
2023-10-14T07:50:43.854Z,10.36
2023-10-14T07:53:14.708Z,10.40
2023-10-14T07:55:46.046Z,10.43
2023-10-14T07:58:12.710Z,10.49
2023-10-14T08:00:40.626Z,10.51
2023-10-14T08:03:08.920Z,10.55
2023-10-14T08:05:39.017Z,10.61
2023-10-14T08:08:08.170Z,10.66
2023-10-14T08:10:35.562Z,10.70
2023-10-14T08:13:09.873Z,10.74
2023-10-14T08:15:36.895Z,10.80
2023-10-14T08:18:07.988Z,10.83
2023-10-14T08:20:35.524Z,10.86
2023-10-14T08:23:03.803Z,10.89
2023-10-14T08:25:31.662Z,10.92
2023-10-14T08:28:05.809Z,10.98
2023-10-14T08:30:46.225Z,11.02
2023-10-14T08:33:16.804Z,11.07
2023-10-14T08:35:43.799Z,11.14
2023-10-14T08:38:13.708Z,11.19
2023-10-14T08:40:43.044Z,11.25
2023-10-14T08:43:11.300Z,11.31
2023-10-14T08:45:43.091Z,11.39
2023-10-14T08:48:10.044Z,11.46
2023-10-14T08:50:37.237Z,11.50
2023-10-14T08:53:06.534Z,11.56
2023-10-14T08:55:34.908Z,11.63
2023-10-14T08:58:13.801Z,11.71
2023-10-14T09:00:44.937Z,11.79
2023-10-14T09:03:12.934Z,11.86
2023-10-14T09:05:41.358Z,11.95
2023-10-14T09:08:10.250Z,12.04
2023-10-14T09:10:38.144Z,12.11
2023-10-14T09:13:09.267Z,12.19
2023-10-14T09:15:40.373Z,12.27
2023-10-14T09:18:20.282Z,12.35
2023-10-14T09:20:55.751Z,12.40
2023-10-14T09:23:38.662Z,12.49
2023-10-14T09:26:05.672Z,12.56
2023-10-14T09:28:37.285Z,12.66
2023-10-14T09:31:08.992Z,12.69
2023-10-14T09:33:38.274Z,12.85
2023-10-14T09:36:12.635Z,12.96
2023-10-14T09:38:40.835Z,13.14
2023-10-14T09:41:09.077Z,13.15
2023-10-14T09:43:40.665Z,13.15
2023-10-14T09:46:12.578Z,13.11
2023-10-14T09:48:41.480Z,13.07
2023-10-14T09:51:08.977Z,12.98
2023-10-14T09:53:37.521Z,12.81
2023-10-14T09:56:08.739Z,12.67
2023-10-14T09:58:37.048Z,12.55
2023-10-14T10:01:08.062Z,12.46
2023-10-14T10:03:46.402Z,12.34
2023-10-14T10:06:36.756Z,12.29
2023-10-14T10:09:30.820Z,12.54
2023-10-14T10:11:59.358Z,12.89
2023-10-14T10:14:26.849Z,13.09
2023-10-14T10:16:54.746Z,13.05
2023-10-14T10:19:24.844Z,13.09
2023-10-14T10:22:14.316Z,13.24
2023-10-14T10:24:46.522Z,13.56
2023-10-14T10:27:13.958Z,13.77
2023-10-14T10:29:48.983Z,13.92
2023-10-14T10:32:22.428Z,13.99
2023-10-14T10:35:07.478Z,13.83
2023-10-14T10:37:40.713Z,13.66
2023-10-14T10:40:13.821Z,13.50
2023-10-14T10:43:11.048Z,13.32
2023-10-14T10:45:41.458Z,13.11
2023-10-14T10:48:12.039Z,12.91
2023-10-14T10:50:40.458Z,12.72
2023-10-14T10:53:06.921Z,12.63
2023-10-14T10:55:37.648Z,12.55
2023-10-14T10:58:06.188Z,12.50
2023-10-14T11:00:33.964Z,12.62
2023-10-14T11:03:02.263Z,12.80
2023-10-14T11:05:31.082Z,13.25
2023-10-14T11:07:58.328Z,13.47
2023-10-14T11:10:26.833Z,13.64
2023-10-14T11:12:55.871Z,13.88
2023-10-14T11:15:23.980Z,14.01
2023-10-14T11:17:58.102Z,14.19
2023-10-14T11:20:32.946Z,14.25
2023-10-14T11:23:00.829Z,14.44
2023-10-14T11:25:31.827Z,14.47
2023-10-14T11:27:59.125Z,14.60
2023-10-14T11:30:30.277Z,14.69
2023-10-14T11:33:00.352Z,14.54
2023-10-14T11:35:31.198Z,14.56
2023-10-14T11:38:05.017Z,14.71
2023-10-14T11:40:39.605Z,14.73
2023-10-14T11:43:06.262Z,14.65
2023-10-14T11:45:33.051Z,14.30
2023-10-14T11:48:01.416Z,13.86
2023-10-14T11:50:31.444Z,13.55
2023-10-14T11:52:58.833Z,13.29
2023-10-14T11:55:27.066Z,13.20
2023-10-14T11:57:55.134Z,13.19
2023-10-14T12:00:22.711Z,13.22
2023-10-14T12:02:49.481Z,13.24
2023-10-14T12:05:17.857Z,13.36
2023-10-14T12:07:45.805Z,13.43
2023-10-14T12:10:12.445Z,13.47
2023-10-14T12:12:39.202Z,13.54
2023-10-14T12:15:09.688Z,13.59
2023-10-14T12:17:39.473Z,13.66
2023-10-14T12:20:11.484Z,13.72
2023-10-14T12:22:42.846Z,13.74
2023-10-14T12:25:10.097Z,13.71
2023-10-14T12:27:36.899Z,13.69
2023-10-14T12:30:03.967Z,13.58
2023-10-14T12:32:33.917Z,13.34
2023-10-14T12:35:00.701Z,13.12
2023-10-14T12:37:29.786Z,12.85
2023-10-14T12:40:05.777Z,12.75
2023-10-14T12:42:46.441Z,12.72
2023-10-14T12:45:23.816Z,12.67
2023-10-14T12:47:50.709Z,12.69
2023-10-14T12:50:21.118Z,12.65
2023-10-14T12:53:00.230Z,12.52
2023-10-14T12:55:27.477Z,12.43
2023-10-14T12:57:55.296Z,12.36
2023-10-14T13:00:30.396Z,12.35
2023-10-14T13:03:01.130Z,12.28
2023-10-14T13:05:28.817Z,12.18
2023-10-14T13:07:57.529Z,12.05
2023-10-14T13:10:25.803Z,12.02
2023-10-14T13:12:54.336Z,11.97
2023-10-14T13:15:29.713Z,12.06
2023-10-14T13:17:57.614Z,12.22
2023-10-14T13:20:27.300Z,12.35
2023-10-14T13:22:59.567Z,12.53
2023-10-14T13:25:26.756Z,12.64
2023-10-14T13:27:53.781Z,12.54
2023-10-14T13:30:23.961Z,12.37
2023-10-14T13:32:55.287Z,12.20
2023-10-14T13:35:22.029Z,12.04
2023-10-14T13:37:49.212Z,11.81
2023-10-14T13:40:37.724Z,11.67
2023-10-14T13:43:07.777Z,11.56
2023-10-14T13:45:34.910Z,11.54
2023-10-14T13:48:07.595Z,11.49
2023-10-14T13:50:40.752Z,11.47
2023-10-14T13:53:22.241Z,11.46
2023-10-14T13:55:55.470Z,11.52
2023-10-14T13:58:24.750Z,11.61
2023-10-14T14:00:51.523Z,11.65
2023-10-14T14:03:20.175Z,11.67
2023-10-14T14:05:52.567Z,11.68
2023-10-14T14:08:20.273Z,11.69
2023-10-14T14:10:46.959Z,11.68
2023-10-14T14:13:21.521Z,11.75
2023-10-14T14:15:48.837Z,11.83
2023-10-14T14:18:16.299Z,11.83
2023-10-14T14:20:42.881Z,11.77
2023-10-14T14:23:10.098Z,11.79
2023-10-14T14:25:38.164Z,11.83
2023-10-14T14:28:05.202Z,11.82
2023-10-14T14:30:32.405Z,11.78
2023-10-14T14:32:59.320Z,11.75
2023-10-14T14:35:31.396Z,11.72
2023-10-14T14:37:59.423Z,11.70
2023-10-14T14:40:28.195Z,11.65
2023-10-14T14:42:58.792Z,11.71
2023-10-14T14:45:28.641Z,11.72
2023-10-14T14:48:00.054Z,11.79
2023-10-14T14:50:30.239Z,11.81
2023-10-14T14:52:58.753Z,11.92
2023-10-14T14:55:26.498Z,11.97
2023-10-14T14:57:55.291Z,12.01
2023-10-14T15:00:29.051Z,12.08
2023-10-14T15:03:01.461Z,11.97
2023-10-14T15:05:53.257Z,11.89
2023-10-14T15:08:19.799Z,11.84
2023-10-14T15:10:46.718Z,11.79
2023-10-14T15:13:15.876Z,11.76
2023-10-14T15:15:43.313Z,11.77
2023-10-14T15:18:11.339Z,11.70
2023-10-14T15:20:39.162Z,11.62
2023-10-14T15:23:08.592Z,11.56
2023-10-14T15:25:37.941Z,11.52
2023-10-14T15:28:08.692Z,11.51
2023-10-14T15:30:39.388Z,11.47
2023-10-14T15:33:11.070Z,11.49
2023-10-14T15:35:38.630Z,11.49
2023-10-14T15:38:09.180Z,11.50
2023-10-14T15:40:36.744Z,11.52
2023-10-14T15:43:06.188Z,11.55
2023-10-14T15:45:36.449Z,11.52
2023-10-14T15:48:12.714Z,11.54
2023-10-14T15:50:45.648Z,11.49
2023-10-14T15:53:13.229Z,11.40
2023-10-14T15:55:40.226Z,11.39
2023-10-14T15:58:07.273Z,11.35
2023-10-14T16:00:36.557Z,11.31
2023-10-14T16:03:11.625Z,11.29
2023-10-14T16:05:39.941Z,11.25
2023-10-14T16:08:08.108Z,11.19
2023-10-14T16:10:41.197Z,11.18
2023-10-14T16:13:08.789Z,11.15
2023-10-14T16:15:36.480Z,11.11
2023-10-14T16:20:31.446Z,11.02
2023-10-14T16:23:00.820Z,10.94
2023-10-14T16:25:27.382Z,10.89
2023-10-14T16:27:54.876Z,10.84
2023-10-14T16:30:23.048Z,10.78
2023-10-14T16:32:51.982Z,10.73
2023-10-14T16:35:20.551Z,10.63
2023-10-14T16:37:49.117Z,10.58
2023-10-14T16:40:19.541Z,10.54
2023-10-14T16:42:57.508Z,10.50
2023-10-14T16:45:23.928Z,10.48
2023-10-14T16:47:53.090Z,10.45
2023-10-14T16:50:25.663Z,10.41
2023-10-14T16:52:54.387Z,10.36
2023-10-14T16:55:22.983Z,10.33
2023-10-14T16:57:51.120Z,10.27
2023-10-14T17:00:24.014Z,10.23
2023-10-14T17:02:56.268Z,10.20
2023-10-14T17:05:24.182Z,10.15
2023-10-14T17:07:54.892Z,10.12
2023-10-14T17:10:26.895Z,10.10
2023-10-14T17:12:55.016Z,10.02
2023-10-14T17:15:25.643Z,9.96
2023-10-14T17:17:53.834Z,9.90
2023-10-14T17:20:22.102Z,9.86
2023-10-14T17:22:56.389Z,9.81
2023-10-14T17:25:27.905Z,9.73
2023-10-14T17:27:56.792Z,9.68
2023-10-14T17:30:28.317Z,9.62
2023-10-14T17:32:56.879Z,9.58
2023-10-14T17:35:24.019Z,9.53
2023-10-14T17:37:52.042Z,9.50
2023-10-14T17:40:20.187Z,9.48
2023-10-14T17:42:54.822Z,9.46
2023-10-14T17:45:27.696Z,9.47
2023-10-14T17:47:55.846Z,9.42
2023-10-14T17:50:23.249Z,9.41
2023-10-14T17:52:52.804Z,9.39
2023-10-14T17:55:20.137Z,9.33
2023-10-14T17:57:47.244Z,9.29
2023-10-14T18:00:26.348Z,9.29
2023-10-14T18:02:57.354Z,9.27
2023-10-14T18:05:25.638Z,9.21
2023-10-14T18:07:56.481Z,9.17
2023-10-14T18:10:23.270Z,9.10
2023-10-14T18:12:49.727Z,9.03
2023-10-14T18:15:17.477Z,8.95
2023-10-14T18:17:46.413Z,8.90
2023-10-14T18:20:17.601Z,8.86
2023-10-14T18:22:48.987Z,8.81
2023-10-14T18:25:17.719Z,8.76
2023-10-14T18:27:44.650Z,8.69
2023-10-14T18:30:18.213Z,8.66
2023-10-14T18:32:45.864Z,8.63
2023-10-14T18:35:17.373Z,8.55
2023-10-14T18:37:45.638Z,8.53
2023-10-14T18:40:17.141Z,8.52
2023-10-14T18:42:45.574Z,8.51
2023-10-14T18:45:22.407Z,8.49
2023-10-14T18:47:53.980Z,8.45
2023-10-14T18:50:23.812Z,8.44
2023-10-14T18:52:51.925Z,8.43
2023-10-14T18:55:27.725Z,8.43
2023-10-14T18:57:56.021Z,8.42
2023-10-14T19:00:24.444Z,8.39
2023-10-14T19:02:56.997Z,8.37
2023-10-14T19:05:30.008Z,8.34
2023-10-14T19:07:57.967Z,8.29
2023-10-14T19:10:25.308Z,8.27
2023-10-14T19:12:54.630Z,8.27
2023-10-14T19:15:23.639Z,8.25
2023-10-14T19:17:50.677Z,8.27
2023-10-14T19:20:17.180Z,8.28
2023-10-14T19:23:10.850Z,8.25
2023-10-14T19:25:39.025Z,8.16
2023-10-14T19:28:10.597Z,8.12
2023-10-14T19:30:41.057Z,8.11
2023-10-14T19:33:09.320Z,8.11
2023-10-14T19:35:43.116Z,8.11
2023-10-14T19:38:11.530Z,8.11
2023-10-14T19:40:40.105Z,8.11
2023-10-14T19:43:07.151Z,8.09
2023-10-14T19:45:33.959Z,8.09
2023-10-14T19:48:00.496Z,8.10
2023-10-14T19:50:33.360Z,8.11
2023-10-14T19:52:59.807Z,8.04
2023-10-14T19:55:29.287Z,7.97
2023-10-14T19:57:58.831Z,7.91
2023-10-14T20:00:28.575Z,7.87
2023-10-14T20:03:05.292Z,7.88
2023-10-14T20:05:39.798Z,7.91
2023-10-14T20:08:13.344Z,7.92
2023-10-14T20:10:40.807Z,7.87
2023-10-14T20:13:16.283Z,7.84
2023-10-14T20:15:44.447Z,7.79
2023-10-14T20:18:16.019Z,7.79
2023-10-14T20:20:44.368Z,7.82
2023-10-14T20:23:12.891Z,7.80
2023-10-14T20:25:43.862Z,7.77
2023-10-14T20:28:17.165Z,7.77
2023-10-14T20:30:48.241Z,7.75
2023-10-14T20:33:18.814Z,7.73
2023-10-14T20:35:46.212Z,7.69
2023-10-14T20:38:13.825Z,7.63
2023-10-14T20:40:44.978Z,7.59
2023-10-14T20:43:11.980Z,7.54
2023-10-14T20:45:41.310Z,7.53
2023-10-14T20:48:08.696Z,7.52
2023-10-14T20:50:38.490Z,7.49
2023-10-14T20:53:06.061Z,7.44
2023-10-14T20:55:33.156Z,7.39
2023-10-14T20:58:05.244Z,7.39
2023-10-14T21:00:35.568Z,7.38
2023-10-14T21:03:10.890Z,7.37
2023-10-14T21:05:42.287Z,7.35
2023-10-14T21:08:17.324Z,7.30
2023-10-14T21:10:48.082Z,7.26
2023-10-14T21:13:18.587Z,7.23
2023-10-14T21:15:46.521Z,7.23
2023-10-14T21:18:17.737Z,7.22
2023-10-14T21:20:47.741Z,7.19
2023-10-14T21:23:19.794Z,7.21
2023-10-14T21:25:48.020Z,7.24
2023-10-14T21:28:15.132Z,7.23
2023-10-14T21:30:41.648Z,7.22
2023-10-14T21:33:08.134Z,7.24
2023-10-14T21:35:36.138Z,7.28
2023-10-14T21:38:03.636Z,7.32
2023-10-14T21:40:31.825Z,7.35
2023-10-14T21:42:59.243Z,7.38
2023-10-14T21:45:30.823Z,7.42
2023-10-14T21:47:57.420Z,7.50
2023-10-14T21:50:27.490Z,7.57
2023-10-14T21:52:54.037Z,7.64
2023-10-14T21:55:24.177Z,7.64
2023-10-14T21:57:54.956Z,7.64
2023-10-14T22:00:22.998Z,7.67
2023-10-14T22:02:51.048Z,7.68
2023-10-14T22:05:20.908Z,7.68
2023-10-14T22:07:48.894Z,7.74
2023-10-14T22:10:20.331Z,7.79
2023-10-14T22:12:59.378Z,7.81
2023-10-14T22:15:29.016Z,7.84
2023-10-14T22:17:57.015Z,7.85
2023-10-14T22:20:23.883Z,7.84
2023-10-14T22:22:51.365Z,7.81
2023-10-14T22:25:18.642Z,7.80
2023-10-14T22:27:48.456Z,7.77
2023-10-14T22:30:15.813Z,7.76
2023-10-14T22:32:48.599Z,7.79
2023-10-14T22:35:16.457Z,7.82
2023-10-14T22:37:43.671Z,7.82
2023-10-14T22:40:17.264Z,7.83
2023-10-14T22:42:44.488Z,7.89
2023-10-14T22:45:12.129Z,7.89
2023-10-14T22:47:41.464Z,7.89
2023-10-14T22:50:11.734Z,7.76
2023-10-14T22:52:39.353Z,7.68
2023-10-14T22:55:10.890Z,7.69
2023-10-14T22:57:39.230Z,7.68
2023-10-14T23:00:15.895Z,7.70
2023-10-14T23:02:46.992Z,7.74
2023-10-14T23:05:23.508Z,7.73
2023-10-14T23:07:50.624Z,7.74
2023-10-14T23:10:20.534Z,7.76
2023-10-14T23:12:51.195Z,7.78
2023-10-14T23:15:18.761Z,7.77
2023-10-14T23:17:47.158Z,7.76
2023-10-14T23:20:16.910Z,7.77
2023-10-14T23:22:44.301Z,7.79
2023-10-14T23:25:14.607Z,7.76
2023-10-14T23:27:44.440Z,7.76
2023-10-14T23:30:19.951Z,7.82
2023-10-14T23:32:48.542Z,7.86
2023-10-14T23:35:24.489Z,7.88
2023-10-14T23:37:59.225Z,7.84
2023-10-14T23:40:31.272Z,7.82
2023-10-14T23:43:02.755Z,7.79
2023-10-14T23:45:32.194Z,7.73
2023-10-14T23:47:59.245Z,7.68
2023-10-14T23:50:26.063Z,7.69
2023-10-14T23:52:53.310Z,7.75
2023-10-14T23:55:22.389Z,7.72
2023-10-14T23:57:49.835Z,7.72
